createdAt,value
2023-03-16T00:02:07.642Z,26.00
2023-03-16T00:04:37.804Z,27.25
2023-03-16T00:07:08.144Z,21.50
2023-03-16T00:09:36.807Z,24.50
2023-03-16T00:12:15.768Z,31.00
2023-03-16T00:14:48.464Z,29.00
2023-03-16T00:17:21.269Z,29.00
2023-03-16T00:19:57.285Z,32.00
2023-03-16T00:22:29.485Z,30.00
2023-03-16T00:24:57.258Z,28.75
2023-03-16T00:27:26.425Z,31.00
2023-03-16T00:29:57.541Z,31.00
2023-03-16T00:32:28.377Z,32.00
2023-03-16T00:34:55.951Z,34.25
2023-03-16T00:37:25.225Z,32.75
2023-03-16T00:39:56.363Z,32.00
2023-03-16T00:42:29.720Z,33.00
2023-03-16T00:45:01.965Z,31.00
2023-03-16T00:47:32.909Z,26.00
2023-03-16T00:50:01.632Z,28.50
2023-03-16T00:52:30.272Z,29.75
2023-03-16T00:54:57.945Z,36.25
2023-03-16T00:57:27.900Z,37.00
2023-03-16T00:59:55.237Z,33.50
2023-03-16T01:02:26.143Z,36.00
2023-03-16T01:04:54.900Z,35.50
2023-03-16T01:07:23.069Z,35.25
2023-03-16T01:09:50.830Z,36.50
2023-03-16T01:12:20.527Z,38.00
2023-03-16T01:14:48.353Z,38.00
2023-03-16T01:17:17.653Z,38.50
2023-03-16T01:19:46.298Z,35.00
2023-03-16T01:22:14.752Z,37.00
2023-03-16T01:24:45.317Z,32.00
2023-03-16T01:27:14.445Z,28.50
2023-03-16T01:29:44.549Z,30.00
2023-03-16T01:32:12.651Z,31.75
2023-03-16T01:34:41.598Z,31.00
2023-03-16T01:37:09.318Z,33.50
2023-03-16T01:39:36.662Z,34.75
2023-03-16T01:42:04.330Z,37.00
2023-03-16T01:45:05.673Z,35.00
2023-03-16T01:47:38.446Z,33.75
2023-03-16T01:50:07.658Z,31.25
2023-03-16T01:52:37.714Z,29.00
2023-03-16T01:55:09.571Z,31.00
2023-03-16T01:57:43.763Z,31.25
2023-03-16T02:00:21.170Z,31.25
2023-03-16T02:02:56.559Z,34.50
2023-03-16T02:05:34.048Z,25.00
2023-03-16T02:08:04.152Z,37.75
2023-03-16T02:10:33.688Z,39.00
2023-03-16T02:13:02.059Z,37.25
2023-03-16T02:15:30.349Z,43.50
2023-03-16T02:18:00.323Z,39.75
2023-03-16T02:20:38.850Z,41.25
2023-03-16T02:23:18.475Z,37.00
2023-03-16T02:26:06.225Z,38.25
2023-03-16T02:28:48.232Z,38.00
2023-03-16T02:31:19.764Z,34.75
2023-03-16T02:33:52.076Z,36.25
2023-03-16T02:36:20.634Z,37.25
2023-03-16T02:38:48.006Z,31.75
2023-03-16T02:41:19.367Z,31.75
2023-03-16T02:43:55.411Z,30.00
2023-03-16T02:46:27.111Z,31.00
2023-03-16T02:49:07.653Z,26.75
2023-03-16T02:51:35.971Z,27.00
2023-03-16T02:54:04.003Z,27.00
2023-03-16T02:56:32.357Z,27.75
2023-03-16T02:58:59.804Z,28.00
2023-03-16T03:01:34.958Z,27.00
2023-03-16T03:04:05.087Z,26.00
2023-03-16T03:06:32.841Z,21.50
2023-03-16T03:09:02.116Z,27.50
2023-03-16T03:11:30.411Z,26.00
2023-03-16T03:13:57.962Z,24.75
2023-03-16T03:16:25.607Z,26.50
2023-03-16T03:18:53.138Z,28.50
2023-03-16T03:21:24.283Z,27.50
2023-03-16T03:23:52.523Z,32.50
2023-03-16T03:26:20.775Z,33.50
2023-03-16T03:28:50.236Z,33.50
2023-03-16T03:31:22.588Z,33.75
2023-03-16T03:33:50.026Z,31.25
2023-03-16T03:36:18.071Z,30.00
2023-03-16T03:38:45.846Z,29.50
2023-03-16T03:41:13.669Z,29.50
2023-03-16T03:43:42.000Z,31.25
2023-03-16T03:46:11.626Z,29.75
2023-03-16T03:48:40.503Z,29.50
2023-03-16T03:51:07.936Z,31.25
2023-03-16T03:53:35.410Z,30.50
2023-03-16T03:56:02.832Z,30.50
2023-03-16T03:58:30.252Z,30.00
2023-03-16T04:00:57.596Z,32.25
2023-03-16T04:03:25.175Z,31.25
2023-03-16T04:05:56.152Z,29.25
2023-03-16T04:08:24.244Z,32.75
2023-03-16T04:10:55.262Z,34.75
2023-03-16T04:13:23.738Z,35.25
2023-03-16T04:15:57.188Z,32.75
2023-03-16T04:18:25.807Z,31.00
2023-03-16T04:20:53.771Z,32.00
2023-03-16T04:23:22.308Z,33.50
2023-03-16T04:25:49.708Z,32.25
2023-03-16T04:28:18.094Z,29.50
2023-03-16T04:30:50.840Z,32.00
2023-03-16T04:33:18.272Z,37.25
2023-03-16T04:35:46.292Z,33.75
2023-03-16T04:38:15.350Z,33.50
2023-03-16T04:40:42.936Z,32.25
2023-03-16T04:43:10.670Z,32.25
2023-03-16T04:45:38.284Z,33.75
2023-03-16T04:48:06.185Z,31.25
2023-03-16T04:50:34.717Z,27.00
2023-03-16T04:53:04.660Z,32.50
2023-03-16T04:55:36.366Z,31.00
2023-03-16T04:58:03.790Z,32.00
2023-03-16T05:00:32.166Z,32.00
2023-03-16T05:02:59.758Z,28.75
2023-03-16T05:05:27.232Z,29.25
2023-03-16T05:07:56.333Z,28.00
2023-03-16T05:10:24.001Z,26.00
2023-03-16T05:12:51.339Z,29.00
2023-03-16T05:15:18.794Z,32.00
2023-03-16T05:17:47.153Z,29.75
2023-03-16T05:20:16.397Z,29.75
2023-03-16T05:22:46.374Z,26.75
2023-03-16T05:25:15.596Z,30.50
2023-03-16T05:27:49.777Z,32.50
2023-03-16T05:30:18.202Z,31.75
2023-03-16T05:32:46.545Z,30.75
2023-03-16T05:35:24.234Z,27.50
2023-03-16T05:37:52.468Z,29.50
2023-03-16T05:40:23.057Z,30.00
2023-03-16T05:42:55.609Z,28.75
2023-03-16T05:45:28.602Z,31.75
2023-03-16T05:47:56.756Z,28.25
2023-03-16T05:50:24.335Z,34.00
2023-03-16T05:52:52.646Z,32.50
2023-03-16T05:55:20.412Z,31.25
2023-03-16T05:57:47.744Z,30.25
2023-03-16T06:00:16.890Z,27.75
2023-03-16T06:02:48.095Z,29.50
2023-03-16T06:05:17.390Z,30.25
2023-03-16T06:07:45.336Z,32.50
2023-03-16T06:10:18.261Z,30.75
2023-03-16T06:12:46.090Z,25.75
2023-03-16T06:15:13.638Z,30.00
2023-03-16T06:17:42.210Z,30.00
2023-03-16T06:20:13.215Z,28.25
2023-03-16T06:22:44.681Z,30.25
2023-03-16T06:25:14.723Z,32.25
2023-03-16T06:27:43.631Z,31.00
2023-03-16T06:30:13.931Z,29.75
2023-03-16T06:32:42.627Z,34.00
2023-03-16T06:35:11.448Z,31.00
2023-03-16T06:37:39.057Z,31.25
2023-03-16T06:40:07.789Z,31.25
2023-03-16T06:42:35.600Z,25.75
2023-03-16T06:45:05.681Z,31.25
2023-03-16T06:47:33.525Z,35.00
2023-03-16T06:50:01.276Z,32.00
2023-03-16T06:52:29.591Z,31.25
2023-03-16T06:54:58.584Z,31.00
2023-03-16T06:57:26.120Z,30.00
2023-03-16T06:59:53.517Z,30.50
2023-03-16T07:02:23.653Z,34.25
2023-03-16T07:04:51.348Z,33.50
2023-03-16T07:07:22.962Z,32.50
2023-03-16T07:09:50.534Z,34.00
2023-03-16T07:12:17.877Z,34.25
2023-03-16T07:14:52.383Z,34.00
2023-03-16T07:17:23.318Z,33.00
2023-03-16T07:19:50.831Z,34.75
2023-03-16T07:22:20.116Z,26.25
2023-03-16T07:24:56.110Z,32.50
2023-03-16T07:27:24.910Z,33.00
2023-03-16T07:29:52.465Z,32.50
2023-03-16T07:32:19.873Z,33.75
2023-03-16T07:34:47.615Z,34.00
2023-03-16T07:37:18.373Z,35.25
2023-03-16T07:39:49.189Z,33.00
2023-03-16T07:42:17.515Z,38.75
2023-03-16T07:44:44.850Z,32.25
2023-03-16T07:47:14.603Z,36.50
2023-03-16T07:49:42.282Z,34.00
2023-03-16T07:52:13.757Z,30.00
2023-03-16T07:54:41.819Z,34.00
2023-03-16T07:57:10.247Z,34.00
2023-03-16T07:59:38.664Z,10.25
2023-03-16T08:02:06.239Z,28.00
2023-03-16T08:04:33.690Z,34.00
2023-03-16T08:07:02.292Z,30.75
2023-03-16T08:09:31.240Z,34.00
2023-03-16T08:12:08.276Z,34.75
2023-03-16T08:14:38.020Z,34.50
2023-03-16T08:17:07.607Z,31.75
2023-03-16T08:19:39.316Z,32.75
2023-03-16T08:22:07.142Z,34.00
2023-03-16T08:24:35.289Z,28.25
2023-03-16T08:27:03.738Z,33.50
2023-03-16T08:29:34.649Z,36.75
2023-03-16T08:32:02.107Z,36.25
2023-03-16T08:34:30.333Z,32.75
2023-03-16T08:36:58.012Z,33.50
2023-03-16T08:39:26.226Z,35.75
2023-03-16T08:41:54.149Z,33.00
2023-03-16T08:44:23.898Z,31.00
2023-03-16T08:46:52.053Z,30.75
2023-03-16T08:49:20.954Z,33.50
2023-03-16T08:51:48.818Z,33.00
2023-03-16T08:54:16.222Z,33.25
2023-03-16T08:56:47.455Z,32.00
2023-03-16T08:59:28.752Z,34.50
2023-03-16T09:01:56.860Z,33.25
2023-03-16T09:04:25.362Z,31.00
2023-03-16T09:07:09.981Z,29.25
2023-03-16T09:09:37.656Z,29.00
2023-03-16T09:12:06.533Z,29.00
2023-03-16T09:14:34.319Z,32.25
2023-03-16T09:17:11.957Z,36.25
2023-03-16T09:19:50.988Z,34.50
2023-03-16T09:22:20.932Z,34.25
2023-03-16T09:24:49.877Z,35.50
2023-03-16T09:27:18.450Z,34.00
2023-03-16T09:29:49.641Z,34.00
2023-03-16T09:32:17.352Z,34.00
2023-03-16T09:34:44.918Z,33.00
2023-03-16T09:37:12.315Z,34.50
2023-03-16T09:39:39.815Z,33.25
2023-03-16T09:42:19.826Z,34.75
2023-03-16T09:45:18.693Z,35.25
2023-03-16T09:47:49.710Z,32.25
2023-03-16T09:50:28.198Z,31.75
2023-03-16T09:53:04.272Z,32.50
2023-03-16T09:55:39.001Z,32.50
2023-03-16T09:58:17.530Z,32.00
2023-03-16T10:00:56.420Z,30.25
2023-03-16T10:04:05.583Z,32.00
2023-03-16T10:06:44.375Z,31.00
2023-03-16T10:09:30.013Z,32.25
2023-03-16T10:12:00.879Z,30.25
2023-03-16T10:14:54.312Z,28.75
2023-03-16T10:17:31.049Z,34.00
2023-03-16T10:20:09.184Z,31.75
2023-03-16T10:22:43.428Z,31.00
2023-03-16T10:25:35.748Z,23.25
2023-03-16T10:28:04.086Z,31.25
2023-03-16T10:30:35.449Z,30.00
2023-03-16T10:33:18.578Z,29.75
2023-03-16T10:35:52.185Z,27.00
2023-03-16T10:38:50.689Z,29.00
2023-03-16T10:41:18.254Z,25.00
2023-03-16T10:44:01.911Z,23.75
2023-03-16T10:46:38.984Z,26.00
2023-03-16T10:49:22.635Z,29.00
2023-03-16T10:51:51.403Z,26.25
2023-03-16T10:54:35.651Z,23.50
2023-03-16T10:57:25.680Z,24.00
2023-03-16T11:00:00.528Z,24.50
2023-03-16T11:02:34.590Z,24.75
2023-03-16T11:05:29.831Z,27.75
2023-03-16T11:08:13.538Z,28.00
2023-03-16T11:10:55.707Z,31.00
2023-03-16T11:13:32.276Z,32.00
2023-03-16T11:16:22.053Z,31.75
2023-03-16T11:18:58.539Z,34.00
2023-03-16T11:21:39.565Z,32.00
2023-03-16T11:24:27.531Z,29.00
2023-03-16T11:27:00.042Z,33.00
2023-03-16T11:29:58.760Z,33.50
2023-03-16T11:32:37.339Z,32.50
2023-03-16T11:35:19.627Z,28.50
2023-03-16T11:38:08.556Z,24.75
2023-03-16T11:40:51.182Z,24.75
2023-03-16T11:43:26.394Z,26.50
2023-03-16T11:46:16.839Z,24.50
2023-03-16T11:48:50.690Z,24.25
2023-03-16T11:51:24.269Z,26.00
2023-03-16T11:54:05.499Z,26.00
2023-03-16T11:56:51.146Z,26.75
2023-03-16T11:59:55.406Z,24.25
2023-03-16T12:02:34.220Z,24.25
2023-03-16T12:05:23.363Z,24.00
2023-03-16T12:08:06.806Z,23.25
2023-03-16T12:10:38.776Z,21.75
2023-03-16T12:13:30.884Z,20.75
2023-03-16T12:16:25.131Z,12.25
2023-03-16T12:19:01.376Z,19.75
2023-03-16T12:21:34.155Z,23.00
2023-03-16T12:24:12.346Z,21.75
2023-03-16T12:26:42.602Z,21.50
2023-03-16T12:29:32.264Z,20.00
2023-03-16T12:32:18.954Z,20.25
2023-03-16T12:34:59.940Z,15.25
2023-03-16T12:37:52.573Z,15.00
2023-03-16T12:40:32.201Z,14.67
2023-03-16T12:43:10.782Z,17.33
2023-03-16T12:46:11.954Z,16.75
2023-03-16T12:48:49.530Z,20.50
2023-03-16T12:51:17.438Z,18.50
2023-03-16T12:53:50.622Z,20.50
2023-03-16T12:56:26.512Z,19.25
2023-03-16T12:58:57.556Z,19.75
2023-03-16T13:01:31.297Z,19.00
2023-03-16T13:04:12.724Z,15.00
2023-03-16T13:06:52.824Z,16.00
2023-03-16T13:09:27.541Z,20.00
2023-03-16T13:11:59.129Z,6.75
2023-03-16T13:14:34.891Z,19.00
2023-03-16T13:17:17.264Z,21.00
2023-03-16T13:19:59.107Z,21.00
2023-03-16T13:22:28.871Z,20.75
2023-03-16T13:25:22.353Z,19.25
2023-03-16T13:27:56.013Z,21.50
2023-03-16T13:30:31.400Z,22.00
2023-03-16T13:33:24.534Z,20.25
2023-03-16T13:35:54.447Z,21.00
2023-03-16T13:38:28.800Z,20.00
2023-03-16T13:41:02.281Z,20.25
2023-03-16T13:43:33.218Z,16.00
2023-03-16T13:46:01.456Z,19.25
2023-03-16T13:48:30.054Z,21.50
2023-03-16T13:50:58.762Z,19.00
2023-03-16T13:53:32.938Z,20.75
2023-03-16T13:56:04.452Z,21.00
2023-03-16T13:58:35.804Z,19.00
2023-03-16T14:01:05.558Z,19.75
2023-03-16T14:03:55.599Z,24.00
2023-03-16T14:06:30.552Z,21.50
2023-03-16T14:09:21.855Z,19.25
2023-03-16T14:11:49.304Z,21.00
2023-03-16T14:14:41.707Z,16.50
2023-03-16T14:17:20.887Z,22.00
2023-03-16T14:19:52.924Z,21.00
2023-03-16T14:22:25.404Z,19.25
2023-03-16T14:24:59.255Z,22.00
2023-03-16T14:27:40.054Z,22.25
2023-03-16T14:30:26.816Z,18.75
2023-03-16T14:33:00.029Z,20.00
2023-03-16T14:35:43.276Z,21.00
2023-03-16T14:38:29.754Z,22.75
2023-03-16T14:41:04.579Z,23.00
2023-03-16T14:43:36.866Z,21.75
2023-03-16T14:46:07.710Z,21.00
2023-03-16T14:48:38.068Z,20.00
2023-03-16T14:51:14.108Z,16.25
2023-03-16T14:53:43.649Z,22.00
2023-03-16T14:56:13.702Z,23.75
2023-03-16T14:58:47.113Z,20.00
2023-03-16T15:01:20.702Z,22.75
2023-03-16T15:03:48.544Z,22.50
2023-03-16T15:06:16.560Z,19.00
2023-03-16T15:08:47.056Z,21.00
2023-03-16T15:11:21.642Z,22.25
2023-03-16T15:13:49.135Z,22.00
2023-03-16T15:16:17.200Z,24.50
2023-03-16T15:18:48.097Z,20.50
2023-03-16T15:21:25.181Z,22.75
2023-03-16T15:23:54.600Z,23.75
2023-03-16T15:26:27.364Z,22.75
2023-03-16T15:28:56.595Z,23.25
2023-03-16T15:31:24.413Z,24.25
2023-03-16T15:33:52.026Z,16.00
2023-03-16T15:36:22.361Z,21.75
2023-03-16T15:38:53.144Z,21.50
2023-03-16T15:41:21.389Z,24.25
2023-03-16T15:44:00.988Z,23.25
2023-03-16T15:46:29.617Z,24.00
2023-03-16T15:48:57.211Z,25.50
2023-03-16T15:51:27.955Z,27.25
2023-03-16T15:53:59.641Z,25.25
2023-03-16T15:56:36.573Z,25.50
2023-03-16T15:59:16.997Z,27.00
2023-03-16T16:01:47.695Z,25.50
2023-03-16T16:04:21.804Z,26.75
2023-03-16T16:06:50.928Z,28.00
2023-03-16T16:09:19.546Z,28.25
2023-03-16T16:11:50.624Z,28.00
2023-03-16T16:14:24.791Z,29.00
2023-03-16T16:16:54.622Z,30.00
2023-03-16T16:19:22.112Z,30.00
2023-03-16T16:21:55.193Z,29.25
2023-03-16T16:24:22.592Z,25.00
2023-03-16T16:26:55.644Z,32.25
2023-03-16T16:29:26.817Z,30.25
2023-03-16T16:31:55.413Z,31.00
2023-03-16T16:34:27.255Z,29.75
2023-03-16T16:36:56.168Z,33.00
2023-03-16T16:39:24.258Z,25.75
2023-03-16T16:41:56.725Z,30.00
2023-03-16T16:44:34.412Z,31.25
2023-03-16T16:47:19.094Z,31.50
2023-03-16T16:49:47.165Z,32.00
2023-03-16T16:52:17.670Z,30.00
2023-03-16T16:54:45.508Z,33.25
2023-03-16T16:57:19.843Z,33.50
2023-03-16T16:59:51.588Z,31.75
2023-03-16T17:02:43.822Z,27.25
2023-03-16T17:05:27.035Z,33.50
2023-03-16T17:07:57.224Z,31.25
2023-03-16T17:10:27.176Z,32.75
2023-03-16T17:12:57.220Z,33.75
2023-03-16T17:15:33.936Z,32.50
2023-03-16T17:18:11.088Z,30.00
2023-03-16T17:20:39.218Z,32.25
2023-03-16T17:23:34.729Z,32.50
2023-03-16T17:26:16.267Z,31.25
2023-03-16T17:28:55.821Z,32.50
2023-03-16T17:31:36.548Z,31.75
2023-03-16T17:34:16.834Z,31.50
2023-03-16T17:36:45.441Z,31.25
2023-03-16T17:39:28.399Z,32.00
2023-03-16T17:42:02.271Z,33.00
2023-03-16T17:44:33.552Z,29.50
2023-03-16T17:47:01.481Z,34.25
2023-03-16T17:49:30.881Z,30.25
2023-03-16T17:51:58.965Z,33.00
2023-03-16T17:54:26.434Z,31.25
2023-03-16T17:56:55.476Z,31.00
2023-03-16T17:59:23.328Z,31.00
2023-03-16T18:01:52.501Z,32.75
2023-03-16T18:04:26.349Z,33.25
2023-03-16T18:06:54.514Z,33.75
2023-03-16T18:09:22.389Z,32.00
2023-03-16T18:11:51.547Z,34.25
2023-03-16T18:14:35.624Z,32.00
2023-03-16T18:17:26.960Z,32.25
2023-03-16T18:19:57.555Z,34.50
2023-03-16T18:22:28.104Z,32.00
2023-03-16T18:24:55.916Z,32.50
2023-03-16T18:27:24.800Z,35.25
2023-03-16T18:29:52.402Z,34.00
2023-03-16T18:32:29.436Z,33.25
2023-03-16T18:34:57.821Z,30.00
2023-03-16T18:37:30.589Z,33.25
2023-03-16T18:39:59.045Z,35.50
2023-03-16T18:42:28.126Z,36.00
2023-03-16T18:44:55.785Z,32.75
2023-03-16T18:47:31.474Z,35.75
2023-03-16T18:50:00.630Z,33.50
2023-03-16T18:52:32.933Z,34.75
2023-03-16T18:55:00.593Z,37.00
2023-03-16T18:57:34.996Z,35.00
2023-03-16T19:00:03.242Z,34.75
2023-03-16T19:02:42.915Z,35.75
2023-03-16T19:05:18.987Z,35.00
2023-03-16T19:07:50.559Z,34.00
2023-03-16T19:10:26.018Z,34.25
2023-03-16T19:12:54.677Z,35.50
2023-03-16T19:15:36.299Z,35.25
2023-03-16T19:18:06.287Z,36.50
2023-03-16T19:20:35.103Z,32.00
2023-03-16T19:23:19.173Z,34.00
2023-03-16T19:25:47.568Z,37.50
2023-03-16T19:28:28.479Z,34.50
2023-03-16T19:30:57.337Z,32.75
2023-03-16T19:33:26.755Z,30.00
2023-03-16T19:35:56.095Z,36.00
2023-03-16T19:38:25.224Z,27.25
2023-03-16T19:40:57.044Z,29.50
2023-03-16T19:43:26.228Z,26.00
2023-03-16T19:45:56.555Z,28.75
2023-03-16T19:48:32.951Z,27.25
2023-03-16T19:51:00.737Z,26.00
2023-03-16T19:53:30.480Z,27.25
2023-03-16T19:55:57.969Z,25.75
2023-03-16T19:58:33.410Z,29.75
2023-03-16T20:01:01.313Z,31.25
2023-03-16T20:03:31.891Z,32.00
2023-03-16T20:05:59.674Z,27.25
2023-03-16T20:08:29.355Z,30.75
2023-03-16T20:11:02.351Z,31.75
2023-03-16T20:13:35.110Z,30.50
2023-03-16T20:16:03.572Z,30.25
2023-03-16T20:18:31.143Z,29.00
2023-03-16T20:21:15.469Z,29.25
2023-03-16T20:23:43.688Z,28.00
2023-03-16T20:26:27.522Z,28.50
2023-03-16T20:28:55.785Z,28.00
2023-03-16T20:31:31.379Z,24.75
2023-03-16T20:33:59.460Z,25.00
2023-03-16T20:36:27.779Z,27.50
2023-03-16T20:38:55.544Z,29.00
2023-03-16T20:41:29.686Z,28.50
2023-03-16T20:43:59.734Z,27.00
2023-03-16T20:46:31.549Z,28.00
2023-03-16T20:49:00.900Z,27.50
2023-03-16T20:51:29.030Z,25.75
2023-03-16T20:53:56.673Z,25.00
2023-03-16T20:56:28.010Z,28.25
2023-03-16T20:58:57.158Z,28.00
2023-03-16T21:01:24.764Z,30.25
2023-03-16T21:03:55.639Z,33.00
2023-03-16T21:06:27.256Z,30.75
2023-03-16T21:08:57.972Z,29.75
2023-03-16T21:11:36.839Z,28.50
2023-03-16T21:14:08.222Z,29.00
2023-03-16T21:16:36.497Z,28.00
2023-03-16T21:19:06.831Z,26.75
2023-03-16T21:21:34.621Z,26.50
2023-03-16T21:24:04.589Z,26.25
2023-03-16T21:26:34.121Z,25.50
2023-03-16T21:29:06.847Z,26.25
2023-03-16T21:31:35.032Z,28.50
2023-03-16T21:34:03.069Z,28.50
2023-03-16T21:36:30.829Z,16.25
2023-03-16T21:38:58.378Z,23.25
2023-03-16T21:41:25.874Z,28.50
2023-03-16T21:43:54.600Z,25.50
2023-03-16T21:46:25.648Z,26.00
2023-03-16T21:48:55.246Z,26.00
2023-03-16T21:51:29.042Z,26.00
2023-03-16T21:53:56.575Z,27.75
2023-03-16T21:56:26.249Z,26.25
2023-03-16T21:58:54.704Z,27.00
2023-03-16T22:01:29.714Z,26.50
2023-03-16T22:04:02.818Z,27.25
2023-03-16T22:06:30.764Z,26.75
2023-03-16T22:08:59.877Z,29.25
2023-03-16T22:11:30.248Z,26.00
2023-03-16T22:13:59.358Z,25.75
2023-03-16T22:16:30.211Z,24.50
2023-03-16T22:18:58.672Z,26.00
2023-03-16T22:21:33.422Z,26.00
2023-03-16T22:24:05.446Z,27.75
2023-03-16T22:26:33.203Z,24.75
2023-03-16T22:29:23.581Z,25.50
2023-03-16T22:31:56.142Z,26.25
2023-03-16T22:34:29.181Z,22.25
2023-03-16T22:36:57.649Z,28.00
2023-03-16T22:39:25.927Z,29.75
2023-03-16T22:41:53.619Z,28.25
2023-03-16T22:44:22.978Z,29.25
2023-03-16T22:46:51.139Z,29.00
2023-03-16T22:49:25.768Z,28.00
2023-03-16T22:51:56.420Z,28.00
2023-03-16T22:54:28.221Z,27.00
2023-03-16T22:56:55.999Z,30.75
2023-03-16T22:59:27.196Z,31.75
2023-03-16T23:01:54.974Z,30.25
2023-03-16T23:04:25.924Z,31.75
2023-03-16T23:06:54.716Z,32.50
2023-03-16T23:09:23.280Z,32.25
2023-03-16T23:11:56.650Z,29.25
2023-03-16T23:14:29.200Z,30.25
2023-03-16T23:16:57.345Z,34.25
2023-03-16T23:19:33.001Z,32.50
2023-03-16T23:22:06.232Z,31.50
2023-03-16T23:24:34.868Z,35.50
2023-03-16T23:27:04.514Z,36.00
2023-03-16T23:29:32.277Z,30.75
2023-03-16T23:32:04.617Z,36.50
2023-03-16T23:34:33.479Z,37.00
2023-03-16T23:37:00.887Z,35.50
2023-03-16T23:39:28.882Z,37.00
2023-03-16T23:41:56.476Z,36.75
2023-03-16T23:44:27.491Z,36.00
2023-03-16T23:46:55.368Z,36.00
2023-03-16T23:49:32.776Z,35.50
2023-03-16T23:52:01.857Z,35.25
2023-03-16T23:54:31.804Z,36.25
2023-03-16T23:56:59.462Z,36.25
2023-03-16T23:59:27.918Z,37.00
